createdAt,value
2019-02-11T00:00:34.461Z,66.20
2019-02-11T00:01:43.197Z,66.40
2019-02-11T00:02:49.925Z,66.20
2019-02-11T00:03:59.752Z,66.20
2019-02-11T00:05:05.305Z,66.30
2019-02-11T00:06:12.110Z,66.20
2019-02-11T00:07:18.910Z,66.20
2019-02-11T00:08:26.626Z,66.30
2019-02-11T00:09:33.419Z,66.40
2019-02-11T00:10:40.132Z,66.40
2019-02-11T00:11:47.011Z,66.50
2019-02-11T00:12:53.739Z,66.50
2019-02-11T00:14:00.457Z,66.40
2019-02-11T00:15:07.267Z,66.20
2019-02-11T00:16:14.059Z,66.20
2019-02-11T00:17:20.874Z,66.30
2019-02-11T00:18:27.682Z,66.30
2019-02-11T00:19:34.490Z,66.50
2019-02-11T00:20:41.295Z,66.30
2019-02-11T00:21:48.122Z,66.30
2019-02-11T00:22:54.859Z,66.30
2019-02-11T00:24:01.650Z,66.20
2019-02-11T00:25:08.381Z,66.10
2019-02-11T00:26:15.101Z,66.10
2019-02-11T00:27:21.843Z,66.00
2019-02-11T00:28:28.590Z,66.80
2019-02-11T00:29:35.332Z,66.00
2019-02-11T00:30:42.151Z,66.00
2019-02-11T00:31:48.968Z,66.00
2019-02-11T00:32:55.746Z,65.80
2019-02-11T00:34:02.498Z,65.70
2019-02-11T00:35:09.253Z,65.60
2019-02-11T00:36:15.974Z,65.60
2019-02-11T00:37:22.770Z,65.60
2019-02-11T00:38:29.506Z,65.60
2019-02-11T00:39:36.273Z,65.60
2019-02-11T00:40:43.161Z,65.50
2019-02-11T00:41:49.909Z,65.60
2019-02-11T00:42:56.835Z,65.50
2019-02-11T00:44:03.669Z,65.40
2019-02-11T00:45:10.557Z,65.40
2019-02-11T00:46:17.331Z,65.40
2019-02-11T00:47:24.065Z,65.30
2019-02-11T00:48:30.786Z,65.20
2019-02-11T00:49:37.493Z,65.20
2019-02-11T00:50:44.220Z,65.20
2019-02-11T00:51:50.952Z,65.20
2019-02-11T00:52:57.770Z,65.20
2019-02-11T00:54:04.507Z,65.10
2019-02-11T00:55:11.359Z,64.90
2019-02-11T00:56:18.088Z,65.00
2019-02-11T00:57:24.999Z,65.00
2019-02-11T00:58:31.742Z,64.90
2019-02-11T00:59:38.536Z,64.90
2019-02-11T01:00:45.277Z,65.00
2019-02-11T01:01:51.989Z,65.00
2019-02-11T01:02:58.778Z,65.70
2019-02-11T01:04:05.575Z,64.90
2019-02-11T01:05:12.284Z,64.90
2019-02-11T01:06:18.999Z,65.00
2019-02-11T01:07:25.783Z,64.90
2019-02-11T01:08:32.595Z,65.00
2019-02-11T01:09:39.389Z,64.90
2019-02-11T01:10:46.212Z,64.90
2019-02-11T01:11:53.020Z,64.90
2019-02-11T01:12:59.760Z,64.90
2019-02-11T01:14:06.554Z,64.80
2019-02-11T01:15:14.002Z,65.00
2019-02-11T01:16:20.718Z,65.00
2019-02-11T01:17:28.508Z,64.90
2019-02-11T01:18:35.345Z,64.80
2019-02-11T01:19:42.080Z,64.90
2019-02-11T01:20:48.788Z,64.80
2019-02-11T01:21:55.535Z,64.90
2019-02-11T01:23:02.252Z,64.90
2019-02-11T01:24:09.090Z,64.90
2019-02-11T01:25:15.914Z,65.00
2019-02-11T01:26:22.733Z,65.10
2019-02-11T01:27:29.577Z,65.10
2019-02-11T01:28:40.037Z,65.10
2019-02-11T01:29:46.771Z,65.10
2019-02-11T01:30:53.525Z,65.20
2019-02-11T01:32:00.234Z,65.20
2019-02-11T01:33:10.881Z,65.30
2019-02-11T01:34:17.851Z,65.30
2019-02-11T01:35:24.637Z,65.20
2019-02-11T01:36:31.478Z,65.30
2019-02-11T01:37:38.345Z,65.30
2019-02-11T01:38:45.103Z,65.30
2019-02-11T01:39:51.910Z,65.30
2019-02-11T01:40:58.642Z,65.30
2019-02-11T01:42:05.393Z,65.40
2019-02-11T01:43:12.092Z,65.50
2019-02-11T01:44:18.845Z,65.60
2019-02-11T01:45:25.713Z,65.60
2019-02-11T01:46:32.449Z,66.30
2019-02-11T01:47:39.249Z,65.50
2019-02-11T01:48:46.049Z,65.70
2019-02-11T01:49:54.083Z,65.70
2019-02-11T01:51:00.884Z,66.80
2019-02-11T01:52:07.705Z,65.80
2019-02-11T01:53:14.444Z,65.90
2019-02-11T01:54:23.154Z,65.90
2019-02-11T01:55:29.926Z,66.00
2019-02-11T01:56:38.238Z,66.00
2019-02-11T01:57:45.302Z,66.10
2019-02-11T01:58:52.185Z,66.10
2019-02-11T01:59:58.997Z,66.10
2019-02-11T02:01:05.778Z,66.20
2019-02-11T02:02:12.540Z,66.20
2019-02-11T02:03:20.599Z,66.40
2019-02-11T02:04:27.329Z,66.40
2019-02-11T02:05:34.452Z,66.40
2019-02-11T02:06:41.250Z,66.30
2019-02-11T02:07:48.065Z,66.30
2019-02-11T02:08:54.791Z,66.40
2019-02-11T02:10:01.601Z,66.50
2019-02-11T02:11:08.498Z,66.40
2019-02-11T02:12:15.370Z,66.50
2019-02-11T02:13:22.175Z,66.50
2019-02-11T02:14:28.903Z,66.50
2019-02-11T02:15:35.702Z,66.80
2019-02-11T02:16:43.508Z,66.80
2019-02-11T02:17:50.310Z,66.60
2019-02-11T02:18:57.120Z,67.30
2019-02-11T02:20:03.998Z,66.40
2019-02-11T02:21:10.809Z,66.40
2019-02-11T02:22:17.541Z,66.30
2019-02-11T02:23:24.291Z,66.20
2019-02-11T02:24:31.040Z,66.30
2019-02-11T02:25:37.846Z,66.40
2019-02-11T02:26:45.662Z,66.40
2019-02-11T02:27:52.468Z,66.30
2019-02-11T02:28:59.271Z,66.20
2019-02-11T02:30:07.834Z,66.20
2019-02-11T02:31:14.542Z,67.10
2019-02-11T02:32:21.260Z,66.10
2019-02-11T02:33:27.985Z,66.40
2019-02-11T02:34:34.719Z,66.20
2019-02-11T02:35:41.446Z,66.00
2019-02-11T02:36:48.192Z,66.00
2019-02-11T02:37:54.984Z,66.00
2019-02-11T02:39:01.701Z,66.10
2019-02-11T02:40:10.299Z,66.10
2019-02-11T02:41:17.012Z,66.10
2019-02-11T02:42:23.789Z,66.10
2019-02-11T02:43:31.075Z,66.00
2019-02-11T02:44:37.814Z,66.10
2019-02-11T02:45:44.562Z,66.10
2019-02-11T02:46:51.230Z,66.20
2019-02-11T02:47:57.948Z,66.20
2019-02-11T02:49:04.673Z,66.20
2019-02-11T02:50:11.561Z,66.10
2019-02-11T02:51:18.344Z,66.10
2019-02-11T02:52:25.139Z,66.20
2019-02-11T02:53:31.862Z,66.30
2019-02-11T02:54:38.645Z,66.40
2019-02-11T02:55:45.360Z,66.30
2019-02-11T02:56:52.080Z,66.30
2019-02-11T02:57:58.795Z,66.40
2019-02-11T02:59:05.533Z,66.30
2019-02-11T03:00:12.298Z,66.40
2019-02-11T03:01:22.212Z,66.40
2019-02-11T03:02:28.946Z,66.50
2019-02-11T03:03:36.843Z,66.30
2019-02-11T03:04:43.668Z,66.30
2019-02-11T03:05:52.852Z,66.30
2019-02-11T03:06:58.914Z,66.30
2019-02-11T03:08:05.630Z,67.00
2019-02-11T03:09:12.452Z,66.40
2019-02-11T03:10:19.205Z,66.40
2019-02-11T03:11:26.003Z,66.40
2019-02-11T03:12:33.742Z,66.50
2019-02-11T03:13:40.482Z,66.50
2019-02-11T03:14:47.223Z,66.60
2019-02-11T03:15:53.961Z,66.70
2019-02-11T03:17:00.922Z,66.60
2019-02-11T03:18:07.623Z,66.70
2019-02-11T03:19:14.443Z,67.00
2019-02-11T03:20:21.255Z,67.00
2019-02-11T03:21:31.880Z,67.00
2019-02-11T03:22:38.623Z,67.00
2019-02-11T03:23:45.342Z,67.00
2019-02-11T03:24:52.065Z,66.90
2019-02-11T03:25:58.946Z,66.90
2019-02-11T03:27:05.668Z,67.00
2019-02-11T03:28:12.502Z,66.90
2019-02-11T03:29:19.232Z,67.00
2019-02-11T03:30:26.053Z,66.90
2019-02-11T03:31:32.845Z,67.00
2019-02-11T03:32:39.563Z,68.20
2019-02-11T03:33:46.267Z,67.40
2019-02-11T03:34:52.992Z,67.60
2019-02-11T03:35:59.730Z,67.60
2019-02-11T03:37:09.517Z,67.70
2019-02-11T03:38:16.347Z,67.70
2019-02-11T03:39:23.134Z,67.80
2019-02-11T03:40:29.944Z,67.90
2019-02-11T03:41:36.710Z,67.80
2019-02-11T03:42:43.502Z,67.80
2019-02-11T03:43:50.239Z,67.90
2019-02-11T03:44:56.950Z,67.90
2019-02-11T03:46:03.700Z,68.10
2019-02-11T03:47:10.503Z,67.90
2019-02-11T03:48:17.253Z,67.80
2019-02-11T03:49:24.090Z,67.90
2019-02-11T03:50:30.911Z,68.00
2019-02-11T03:51:37.648Z,68.00
2019-02-11T03:52:44.444Z,68.00
2019-02-11T03:53:51.265Z,68.00
2019-02-11T03:54:58.065Z,67.90
2019-02-11T03:56:04.819Z,68.10
2019-02-11T03:57:11.610Z,68.10
2019-02-11T03:58:18.363Z,68.20
2019-02-11T03:59:25.082Z,68.40
2019-02-11T04:00:31.799Z,68.30
2019-02-11T04:01:38.523Z,69.20
2019-02-11T04:02:45.286Z,68.50
2019-02-11T04:03:52.114Z,68.50
2019-02-11T04:04:58.833Z,68.60
2019-02-11T04:06:05.551Z,68.50
2019-02-11T04:07:12.407Z,68.50
2019-02-11T04:08:19.125Z,68.70
2019-02-11T04:09:25.912Z,68.80
2019-02-11T04:10:32.828Z,68.80
2019-02-11T04:11:39.611Z,68.80
2019-02-11T04:12:46.340Z,68.80
2019-02-11T04:13:53.083Z,68.90
2019-02-11T04:14:59.810Z,68.90
2019-02-11T04:16:09.051Z,69.00
2019-02-11T04:17:15.841Z,69.00
2019-02-11T04:18:22.731Z,69.10
2019-02-11T04:19:29.562Z,69.00
2019-02-11T04:20:36.276Z,69.20
2019-02-11T04:21:42.998Z,69.20
2019-02-11T04:22:49.813Z,69.40
2019-02-11T04:23:56.537Z,69.50
2019-02-11T04:25:03.322Z,69.50
2019-02-11T04:26:10.066Z,69.50
2019-02-11T04:27:16.788Z,69.50
2019-02-11T04:28:23.601Z,69.60
2019-02-11T04:29:30.480Z,69.70
2019-02-11T04:30:37.245Z,69.60
2019-02-11T04:31:44.047Z,69.60
2019-02-11T04:32:50.758Z,69.60
2019-02-11T04:33:58.313Z,70.40
2019-02-11T04:35:05.969Z,69.60
2019-02-11T04:36:12.744Z,69.60
2019-02-11T04:37:19.561Z,69.60
2019-02-11T04:38:26.349Z,69.60
2019-02-11T04:39:33.105Z,69.60
2019-02-11T04:40:39.908Z,69.60
2019-02-11T04:41:46.656Z,69.60
2019-02-11T04:42:53.395Z,69.20
2019-02-11T04:44:00.195Z,69.70
2019-02-11T04:45:08.295Z,70.40
2019-02-11T04:46:15.104Z,69.70
2019-02-11T04:47:21.919Z,69.80
2019-02-11T04:48:28.789Z,69.80
2019-02-11T04:49:35.517Z,69.70
2019-02-11T04:50:42.653Z,69.80
2019-02-11T04:51:49.362Z,69.90
2019-02-11T04:52:56.199Z,70.00
2019-02-11T04:54:04.463Z,70.00
2019-02-11T04:55:11.220Z,70.00
2019-02-11T04:56:18.007Z,70.00
2019-02-11T04:57:24.802Z,70.10
2019-02-11T04:58:31.830Z,70.00
2019-02-11T04:59:38.619Z,70.10
2019-02-11T05:00:45.338Z,70.10
2019-02-11T05:01:52.048Z,70.20
2019-02-11T05:02:58.777Z,70.10
2019-02-11T05:04:05.537Z,70.20
2019-02-11T05:05:12.362Z,70.20
2019-02-11T05:06:19.101Z,70.20
2019-02-11T05:07:25.872Z,70.40
2019-02-11T05:08:37.158Z,70.30
2019-02-11T05:09:43.983Z,70.40
2019-02-11T05:10:50.986Z,70.40
2019-02-11T05:11:57.955Z,70.30
2019-02-11T05:13:04.660Z,70.40
2019-02-11T05:14:11.411Z,70.50
2019-02-11T05:15:18.128Z,70.50
2019-02-11T05:16:24.833Z,70.50
2019-02-11T05:17:31.666Z,70.60
2019-02-11T05:18:38.523Z,70.60
2019-02-11T05:19:45.282Z,70.60
2019-02-11T05:20:52.014Z,70.60
2019-02-11T05:21:59.797Z,70.70
2019-02-11T05:23:06.535Z,70.60
2019-02-11T05:24:13.434Z,70.70
2019-02-11T05:25:20.171Z,70.60
2019-02-11T05:26:26.909Z,70.70
2019-02-11T05:27:33.612Z,70.70
2019-02-11T05:28:40.347Z,70.70
2019-02-11T05:29:47.083Z,70.90
2019-02-11T05:30:53.939Z,71.00
2019-02-11T05:32:00.670Z,70.90
2019-02-11T05:33:07.422Z,70.90
2019-02-11T05:34:14.181Z,71.00
2019-02-11T05:35:20.982Z,71.00
2019-02-11T05:36:27.815Z,71.00
2019-02-11T05:37:34.995Z,71.00
2019-02-11T05:38:41.778Z,71.00
2019-02-11T05:39:48.518Z,71.00
2019-02-11T05:40:55.214Z,71.00
2019-02-11T05:42:02.108Z,71.00
2019-02-11T05:43:08.904Z,71.10
2019-02-11T05:44:16.909Z,71.10
2019-02-11T05:45:23.616Z,71.00
2019-02-11T05:46:30.333Z,71.10
2019-02-11T05:47:37.069Z,70.40
2019-02-11T05:48:43.794Z,71.00
2019-02-11T05:49:50.589Z,71.00
2019-02-11T05:50:57.380Z,71.00
2019-02-11T05:52:04.278Z,71.80
2019-02-11T05:53:11.067Z,71.00
2019-02-11T05:54:17.786Z,71.10
2019-02-11T05:55:26.267Z,71.10
2019-02-11T05:56:33.003Z,71.10
2019-02-11T05:57:39.715Z,71.20
2019-02-11T05:58:46.519Z,71.00
2019-02-11T05:59:53.233Z,71.10
2019-02-11T06:00:59.974Z,71.00
2019-02-11T06:02:06.749Z,71.20
2019-02-11T06:03:13.459Z,71.00
2019-02-11T06:04:20.166Z,71.10
2019-02-11T06:05:26.885Z,71.10
2019-02-11T06:06:33.620Z,71.10
2019-02-11T06:07:40.418Z,71.00
2019-02-11T06:08:47.234Z,71.20
2019-02-11T06:09:54.043Z,71.00
2019-02-11T06:11:00.765Z,71.10
2019-02-11T06:12:10.727Z,71.10
2019-02-11T06:13:17.546Z,71.10
2019-02-11T06:14:25.234Z,71.10
2019-02-11T06:15:32.025Z,71.20
2019-02-11T06:16:38.739Z,71.20
2019-02-11T06:17:45.456Z,71.10
2019-02-11T06:18:52.195Z,71.10
2019-02-11T06:19:58.981Z,71.10
2019-02-11T06:21:05.707Z,71.10
2019-02-11T06:22:12.518Z,71.10
2019-02-11T06:23:19.325Z,71.10
2019-02-11T06:24:26.103Z,71.30
2019-02-11T06:25:33.890Z,71.30
2019-02-11T06:26:41.770Z,71.20
2019-02-11T06:27:48.688Z,71.10
2019-02-11T06:28:55.404Z,71.20
2019-02-11T06:30:02.133Z,71.10
2019-02-11T06:31:08.920Z,71.30
2019-02-11T06:32:15.727Z,71.30
2019-02-11T06:33:22.442Z,71.50
2019-02-11T06:34:29.266Z,71.30
2019-02-11T06:35:36.060Z,71.30
2019-02-11T06:36:43.970Z,71.50
2019-02-11T06:37:51.026Z,71.50
2019-02-11T06:38:57.912Z,71.40
2019-02-11T06:40:05.095Z,71.40
2019-02-11T06:41:11.833Z,71.40
2019-02-11T06:42:18.526Z,71.30
2019-02-11T06:43:25.273Z,71.30
2019-02-11T06:44:32.119Z,71.20
2019-02-11T06:45:38.833Z,71.20
2019-02-11T06:46:45.562Z,71.10
2019-02-11T06:47:52.322Z,71.20
2019-02-11T06:48:59.149Z,71.10
2019-02-11T06:50:07.121Z,71.30
2019-02-11T06:51:14.006Z,71.20
2019-02-11T06:52:20.724Z,71.20
2019-02-11T06:53:27.459Z,71.30
2019-02-11T06:54:34.531Z,71.30
2019-02-11T06:55:41.246Z,71.20
2019-02-11T06:56:48.021Z,71.20
2019-02-11T06:57:54.749Z,71.20
2019-02-11T06:59:01.453Z,71.20
2019-02-11T07:00:10.884Z,71.20
2019-02-11T07:01:17.597Z,71.20
2019-02-11T07:02:24.400Z,71.20
2019-02-11T07:03:31.179Z,71.20
2019-02-11T07:04:37.900Z,71.20
2019-02-11T07:05:44.636Z,71.20
2019-02-11T07:06:51.365Z,71.20
2019-02-11T07:07:58.084Z,71.30
2019-02-11T07:09:05.972Z,71.20
2019-02-11T07:10:12.850Z,71.20
2019-02-11T07:11:19.580Z,71.20
2019-02-11T07:12:26.326Z,71.20
2019-02-11T07:13:33.042Z,71.50
2019-02-11T07:14:39.771Z,71.20
2019-02-11T07:15:46.518Z,71.20
2019-02-11T07:16:53.372Z,71.30
2019-02-11T07:18:23.734Z,71.20
2019-02-11T07:19:30.442Z,71.30
2019-02-11T07:20:37.235Z,71.40
2019-02-11T07:21:44.038Z,71.20
2019-02-11T07:22:50.755Z,71.30
2019-02-11T07:23:57.479Z,71.40
2019-02-11T07:25:04.275Z,71.30
2019-02-11T07:26:10.986Z,71.40
2019-02-11T07:27:17.724Z,71.30
2019-02-11T07:28:24.445Z,71.30
2019-02-11T07:29:31.256Z,71.30
2019-02-11T07:30:37.942Z,71.30
2019-02-11T07:31:44.670Z,71.30
2019-02-11T07:32:51.396Z,71.30
2019-02-11T07:33:58.191Z,71.30
2019-02-11T07:35:05.935Z,71.40
2019-02-11T07:36:15.714Z,71.30
2019-02-11T07:37:22.433Z,71.30
2019-02-11T07:38:29.154Z,71.40
2019-02-11T07:39:35.903Z,71.40
2019-02-11T07:40:42.617Z,71.30
2019-02-11T07:42:26.750Z,71.30
2019-02-11T07:43:41.652Z,71.30
2019-02-11T07:44:56.732Z,71.00
2019-02-11T07:46:10.656Z,71.20
2019-02-11T07:47:17.366Z,71.00
2019-02-11T07:48:24.105Z,71.10
2019-02-11T07:49:30.833Z,71.10
2019-02-11T07:50:37.586Z,71.30
2019-02-11T07:51:44.294Z,71.70
2019-02-11T07:52:51.010Z,71.40
2019-02-11T07:53:57.732Z,71.40
2019-02-11T07:55:05.060Z,71.30
2019-02-11T07:56:11.808Z,71.40
2019-02-11T07:57:18.524Z,71.20
2019-02-11T07:58:25.304Z,72.00
2019-02-11T07:59:31.981Z,71.10
2019-02-11T08:00:38.710Z,71.40
2019-02-11T08:01:45.514Z,71.30
2019-02-11T08:02:52.316Z,71.40
2019-02-11T08:03:59.027Z,71.40
2019-02-11T08:05:06.436Z,71.30
2019-02-11T08:06:13.158Z,71.30
2019-02-11T08:07:19.885Z,71.40
2019-02-11T08:08:26.696Z,71.50
2019-02-11T08:09:33.485Z,71.40
2019-02-11T08:10:40.222Z,71.40
2019-02-11T08:11:47.006Z,71.40
2019-02-11T08:12:53.737Z,71.40
2019-02-11T08:14:00.476Z,71.40
2019-02-11T08:15:07.854Z,71.40
2019-02-11T08:16:14.586Z,71.40
2019-02-11T08:17:21.290Z,71.40
2019-02-11T08:18:28.026Z,71.40
2019-02-11T08:19:34.809Z,71.40
2019-02-11T08:20:41.520Z,71.40
2019-02-11T08:21:48.296Z,71.20
2019-02-11T08:22:55.089Z,71.30
2019-02-11T08:24:01.807Z,71.10
2019-02-11T08:25:09.073Z,71.20
2019-02-11T08:26:15.860Z,71.30
2019-02-11T08:27:22.565Z,71.30
2019-02-11T08:28:29.452Z,71.50
2019-02-11T08:29:36.190Z,71.30
2019-02-11T08:30:42.919Z,71.40
2019-02-11T08:31:49.795Z,71.40
2019-02-11T08:32:56.514Z,71.40
2019-02-11T08:34:03.231Z,71.50
2019-02-11T08:35:11.028Z,71.40
2019-02-11T08:36:17.824Z,71.40
2019-02-11T08:37:24.577Z,71.50
2019-02-11T08:38:31.295Z,71.40
2019-02-11T08:39:38.006Z,71.40
2019-02-11T08:40:44.720Z,71.40
2019-02-11T08:41:52.520Z,71.40
2019-02-11T08:42:59.251Z,71.40
2019-02-11T08:44:17.967Z,71.40
2019-02-11T08:45:24.671Z,71.40
2019-02-11T08:46:31.626Z,71.40
2019-02-11T08:47:38.340Z,71.40
2019-02-11T08:48:45.168Z,71.40
2019-02-11T08:49:51.963Z,71.50
2019-02-11T08:50:58.775Z,71.40
2019-02-11T08:52:05.509Z,71.50
2019-02-11T08:53:12.399Z,71.40
2019-02-11T08:54:19.157Z,70.90
2019-02-11T08:55:25.881Z,71.60
2019-02-11T08:56:32.595Z,71.60
2019-02-11T08:57:39.320Z,71.50
2019-02-11T08:58:46.035Z,71.50
2019-02-11T08:59:56.748Z,71.50
2019-02-11T09:01:03.463Z,71.50
2019-02-11T09:02:14.042Z,71.50
2019-02-11T09:03:20.748Z,71.50
2019-02-11T09:04:29.743Z,71.50
2019-02-11T09:05:36.544Z,71.20
2019-02-11T09:06:43.393Z,71.50
2019-02-11T09:07:50.110Z,71.50
2019-02-11T09:08:56.832Z,71.60
2019-02-11T09:10:03.645Z,71.50
2019-02-11T09:11:10.405Z,71.40
2019-02-11T09:12:17.130Z,71.30
2019-02-11T09:13:23.833Z,71.40
2019-02-11T09:14:31.051Z,71.50
2019-02-11T09:15:37.961Z,71.50
2019-02-11T09:16:44.743Z,71.40
2019-02-11T09:17:51.465Z,71.30
2019-02-11T09:18:58.176Z,71.30
2019-02-11T09:20:05.508Z,71.30
2019-02-11T09:21:12.245Z,72.00
2019-02-11T09:22:22.403Z,71.30
2019-02-11T09:23:29.125Z,71.30
2019-02-11T09:24:39.258Z,71.30
2019-02-11T09:25:46.005Z,71.30
2019-02-11T09:26:52.776Z,71.30
2019-02-11T09:27:59.475Z,71.30
2019-02-11T09:29:06.296Z,71.20
2019-02-11T09:30:15.414Z,71.20
2019-02-11T09:31:22.140Z,71.20
2019-02-11T09:32:28.851Z,71.40
2019-02-11T09:33:35.579Z,71.40
2019-02-11T09:34:42.312Z,71.40
2019-02-11T09:35:49.054Z,71.30
2019-02-11T09:36:55.761Z,71.40
2019-02-11T09:38:02.555Z,71.40
2019-02-11T09:39:10.239Z,71.40
2019-02-11T09:40:17.082Z,71.40
2019-02-11T09:41:23.794Z,71.40
2019-02-11T09:42:30.531Z,71.50
2019-02-11T09:43:37.241Z,71.40
2019-02-11T09:44:44.056Z,71.30
2019-02-11T09:45:50.791Z,71.40
2019-02-11T09:46:57.509Z,71.40
2019-02-11T09:48:04.233Z,71.50
2019-02-11T09:49:11.001Z,71.30
2019-02-11T09:50:32.057Z,71.30
2019-02-11T09:51:44.702Z,71.40
2019-02-11T09:52:51.418Z,71.20
2019-02-11T09:53:58.158Z,71.20
2019-02-11T09:55:09.770Z,71.20
2019-02-11T09:56:16.487Z,71.10
2019-02-11T09:57:23.236Z,71.10
2019-02-11T09:58:29.978Z,71.00
2019-02-11T09:59:36.705Z,71.10
2019-02-11T10:00:43.413Z,70.90
2019-02-11T10:01:50.221Z,70.90
2019-02-11T10:02:56.962Z,70.90
2019-02-11T10:04:03.694Z,70.90
2019-02-11T10:05:10.563Z,71.00
2019-02-11T10:06:17.292Z,70.80
2019-02-11T10:07:24.010Z,70.70
2019-02-11T10:08:30.736Z,70.70
2019-02-11T10:09:38.335Z,70.70
2019-02-11T10:10:45.067Z,70.80
2019-02-11T10:11:51.774Z,70.80
2019-02-11T10:12:58.548Z,70.70
2019-02-11T10:14:05.288Z,70.60
2019-02-11T10:15:12.964Z,70.60
2019-02-11T10:16:19.769Z,70.70
2019-02-11T10:17:29.766Z,70.80
2019-02-11T10:18:34.923Z,70.70
2019-02-11T10:19:41.928Z,70.80
2019-02-11T10:20:49.751Z,71.50
2019-02-11T10:21:56.472Z,70.80
2019-02-11T10:23:04.778Z,70.90
2019-02-11T10:24:11.613Z,70.80
2019-02-11T10:25:22.190Z,71.00
2019-02-11T10:26:28.915Z,71.00
2019-02-11T10:27:37.055Z,70.90
2019-02-11T10:28:43.786Z,71.00
2019-02-11T10:29:50.608Z,70.90
2019-02-11T10:30:57.324Z,70.90
2019-02-11T10:32:04.398Z,71.70
2019-02-11T10:33:11.116Z,70.90
2019-02-11T10:34:17.855Z,70.90
2019-02-11T10:35:24.576Z,71.00
2019-02-11T10:36:31.367Z,70.90
2019-02-11T10:37:38.097Z,70.90
2019-02-11T10:38:44.820Z,70.90
2019-02-11T10:39:51.551Z,70.90
2019-02-11T10:40:58.337Z,70.90
2019-02-11T10:42:05.039Z,70.90
2019-02-11T10:43:11.749Z,70.90
2019-02-11T10:44:18.546Z,71.00
2019-02-11T10:45:25.284Z,70.90
2019-02-11T10:46:32.027Z,71.00
2019-02-11T10:47:39.256Z,71.00
2019-02-11T10:48:45.981Z,71.10
2019-02-11T10:49:52.717Z,71.10
2019-02-11T10:50:59.558Z,70.90
2019-02-11T10:52:06.294Z,70.90
2019-02-11T10:53:13.082Z,70.70
2019-02-11T10:54:20.215Z,70.60
2019-02-11T10:55:26.927Z,70.70
2019-02-11T10:56:33.807Z,70.80
2019-02-11T10:57:40.532Z,70.60
2019-02-11T10:58:47.273Z,70.50
2019-02-11T10:59:54.060Z,70.60
2019-02-11T11:01:00.859Z,70.50
2019-02-11T11:02:07.760Z,70.60
2019-02-11T11:03:14.485Z,70.50
2019-02-11T11:04:21.285Z,70.40
2019-02-11T11:05:28.017Z,70.20
2019-02-11T11:06:34.750Z,71.00
2019-02-11T11:07:41.467Z,70.30
2019-02-11T11:08:48.185Z,70.40
2019-02-11T11:09:54.926Z,70.50
2019-02-11T11:11:01.713Z,70.40
2019-02-11T11:12:08.583Z,70.30
2019-02-11T11:13:15.356Z,70.20
2019-02-11T11:14:22.093Z,70.20
2019-02-11T11:15:29.124Z,70.20
2019-02-11T11:16:36.001Z,70.20
2019-02-11T11:17:42.724Z,70.30
2019-02-11T11:18:49.522Z,70.30
2019-02-11T11:19:56.251Z,70.20
2019-02-11T11:21:02.997Z,70.30
2019-02-11T11:22:09.858Z,70.30
2019-02-11T11:23:16.646Z,70.40
2019-02-11T11:24:23.358Z,70.30
2019-02-11T11:25:30.135Z,70.10
2019-02-11T11:26:36.869Z,70.30
2019-02-11T11:27:43.580Z,70.10
2019-02-11T11:28:50.304Z,70.10
2019-02-11T11:29:57.025Z,70.10
2019-02-11T11:31:03.830Z,70.00
2019-02-11T11:32:10.550Z,70.20
2019-02-11T11:33:18.285Z,70.20
2019-02-11T11:34:24.997Z,70.10
2019-02-11T11:35:31.723Z,70.00
2019-02-11T11:36:38.419Z,70.30
2019-02-11T11:37:45.152Z,70.00
2019-02-11T11:38:51.881Z,70.00
2019-02-11T11:39:58.611Z,70.00
2019-02-11T11:41:05.547Z,69.90
2019-02-11T11:42:12.488Z,69.80
2019-02-11T11:43:19.218Z,70.10
2019-02-11T11:44:25.939Z,70.30
2019-02-11T11:45:32.735Z,70.30
2019-02-11T11:46:46.974Z,70.40
2019-02-11T11:47:50.016Z,70.40
2019-02-11T11:48:56.753Z,70.40
2019-02-11T11:50:03.465Z,70.20
2019-02-11T11:51:10.284Z,70.10
2019-02-11T11:52:18.050Z,70.00
2019-02-11T11:53:24.803Z,69.90
2019-02-11T11:54:31.546Z,69.80
2019-02-11T11:55:38.331Z,69.80
2019-02-11T11:56:45.119Z,69.70
2019-02-11T11:57:52.015Z,69.60
2019-02-11T11:58:58.736Z,69.50
2019-02-11T12:00:15.899Z,69.50
2019-02-11T12:01:22.745Z,69.20
2019-02-11T12:02:29.849Z,69.20
2019-02-11T12:03:36.567Z,69.20
2019-02-11T12:04:43.396Z,69.30
2019-02-11T12:05:50.281Z,69.00
2019-02-11T12:06:59.038Z,68.90
2019-02-11T12:08:06.852Z,68.70
2019-02-11T12:09:17.187Z,68.40
2019-02-11T12:10:24.222Z,68.60
2019-02-11T12:11:31.469Z,68.50
2019-02-11T12:12:38.718Z,68.50
2019-02-11T12:13:46.735Z,68.40
2019-02-11T12:14:54.469Z,69.30
2019-02-11T12:16:03.959Z,68.50
2019-02-11T12:17:11.592Z,68.50
2019-02-11T12:18:19.739Z,69.30
2019-02-11T12:19:27.128Z,68.50
2019-02-11T12:20:37.292Z,68.30
2019-02-11T12:21:45.165Z,68.30
2019-02-11T12:22:53.709Z,68.20
2019-02-11T12:24:01.499Z,68.20
2019-02-11T12:25:11.673Z,68.40
2019-02-11T12:26:21.431Z,68.20
2019-02-11T12:27:29.904Z,68.00
2019-02-11T12:28:41.651Z,67.90
2019-02-11T12:29:49.598Z,67.80
2019-02-11T12:30:57.036Z,67.90
2019-02-11T12:32:04.753Z,67.90
2019-02-11T12:33:13.853Z,68.10
2019-02-11T12:34:22.340Z,68.20
2019-02-11T12:35:29.913Z,67.90
2019-02-11T12:36:37.559Z,67.80
2019-02-11T12:37:46.055Z,67.80
2019-02-11T12:38:53.689Z,67.70
2019-02-11T12:40:01.159Z,67.60
2019-02-11T12:41:08.981Z,67.60
2019-02-11T12:42:16.884Z,68.40
2019-02-11T12:43:24.835Z,67.30
2019-02-11T12:44:33.794Z,67.30
2019-02-11T12:45:41.309Z,67.50
2019-02-11T12:46:50.368Z,67.60
2019-02-11T12:47:57.556Z,67.80
2019-02-11T12:49:04.825Z,67.90
2019-02-11T12:50:13.887Z,68.10
2019-02-11T12:51:22.750Z,68.50
2019-02-11T12:52:30.389Z,68.30
2019-02-11T12:53:39.357Z,68.00
2019-02-11T12:54:48.059Z,67.70
2019-02-11T12:56:02.234Z,67.90
2019-02-11T12:57:07.132Z,67.90
2019-02-11T12:58:15.276Z,67.50
2019-02-11T12:59:23.266Z,67.40
2019-02-11T13:00:31.147Z,67.50
2019-02-11T13:01:38.957Z,67.00
2019-02-11T13:02:48.378Z,66.80
2019-02-11T13:04:03.193Z,66.80
2019-02-11T13:05:12.171Z,66.50
2019-02-11T13:06:19.570Z,66.70
2019-02-11T13:07:26.864Z,66.70
2019-02-11T13:08:35.932Z,66.60
2019-02-11T13:09:43.620Z,66.60
2019-02-11T13:10:50.637Z,66.00
2019-02-11T13:11:57.687Z,65.90
2019-02-11T13:13:06.883Z,66.10
2019-02-11T13:14:13.336Z,65.60
2019-02-11T13:15:53.176Z,65.20
2019-02-11T13:16:32.328Z,65.10
2019-02-11T13:17:39.521Z,64.90
2019-02-11T13:18:46.640Z,64.80
2019-02-11T13:20:07.941Z,64.70
2019-02-11T13:21:06.809Z,64.50
2019-02-11T13:22:14.138Z,64.30
2019-02-11T13:23:20.958Z,64.30
2019-02-11T13:24:27.750Z,64.10
2019-02-11T13:25:35.493Z,64.30
2019-02-11T13:26:42.203Z,64.20
2019-02-11T13:27:51.015Z,65.00
2019-02-11T13:28:57.722Z,64.30
2019-02-11T13:30:07.049Z,64.20
2019-02-11T13:31:29.488Z,64.30
2019-02-11T13:32:36.225Z,64.30
2019-02-11T13:34:25.199Z,64.40
2019-02-11T13:35:33.007Z,64.40
2019-02-11T13:38:20.034Z,63.90
2019-02-11T13:39:26.887Z,64.00
2019-02-11T13:40:33.642Z,64.00
2019-02-11T13:41:49.839Z,64.10
2019-02-11T13:42:56.538Z,64.20
2019-02-11T13:44:03.311Z,64.30
2019-02-11T13:45:13.917Z,64.00
2019-02-11T13:46:21.397Z,64.10
2019-02-11T13:47:54.806Z,64.00
2019-02-11T13:48:53.941Z,63.90
2019-02-11T13:50:07.470Z,63.90
2019-02-11T13:51:14.254Z,63.50
2019-02-11T13:52:27.403Z,63.30
2019-02-11T13:53:34.115Z,63.10
2019-02-11T13:54:40.911Z,63.00
2019-02-11T13:55:47.643Z,63.10
2019-02-11T13:56:56.457Z,62.90
2019-02-11T13:58:03.245Z,62.90
2019-02-11T13:59:13.530Z,62.90
2019-02-11T14:00:29.450Z,62.70
2019-02-11T14:01:36.163Z,62.60
2019-02-11T14:02:50.064Z,62.50
2019-02-11T14:03:56.844Z,62.30
2019-02-11T14:05:04.395Z,62.10
2019-02-11T14:06:11.119Z,62.10
2019-02-11T14:07:17.846Z,62.10
2019-02-11T14:08:24.548Z,62.20
2019-02-11T14:09:31.300Z,62.20
2019-02-11T14:10:38.090Z,62.20
2019-02-11T14:11:44.811Z,62.20
2019-02-11T14:12:51.517Z,62.90
2019-02-11T14:14:03.090Z,62.20
2019-02-11T14:15:06.700Z,62.20
2019-02-11T14:16:13.519Z,62.30
2019-02-11T14:17:20.296Z,62.40
2019-02-11T14:18:27.076Z,62.20
2019-02-11T14:19:33.807Z,62.20
2019-02-11T14:20:40.917Z,62.20
2019-02-11T14:21:48.722Z,62.20
2019-02-11T14:22:55.480Z,62.10
2019-02-11T14:24:02.492Z,62.10
2019-02-11T14:25:10.532Z,62.00
2019-02-11T14:26:17.308Z,62.10
2019-02-11T14:27:24.028Z,62.20
2019-02-11T14:28:30.749Z,62.20
2019-02-11T14:29:37.730Z,62.20